createdAt,value
2018-07-31T00:00:16.498Z,6.40
2018-07-31T00:01:16.471Z,5.40
2018-07-31T00:02:16.457Z,5.90
2018-07-31T00:03:16.444Z,6.90
2018-07-31T00:04:16.429Z,5.80
2018-07-31T00:05:16.426Z,7.20
2018-07-31T00:06:16.400Z,5.50
2018-07-31T00:07:16.384Z,6.90
2018-07-31T00:08:16.369Z,5.50
2018-07-31T00:09:16.357Z,5.70
2018-07-31T00:10:16.352Z,5.40
2018-07-31T00:11:16.328Z,7.00
2018-07-31T00:12:16.314Z,5.70
2018-07-31T00:13:16.296Z,6.50
2018-07-31T00:14:16.285Z,7.00
2018-07-31T00:15:16.279Z,6.90
2018-07-31T00:16:16.253Z,5.80
2018-07-31T00:17:16.240Z,6.00
2018-07-31T00:18:16.229Z,6.80
2018-07-31T00:19:16.209Z,6.00
2018-07-31T00:20:16.204Z,6.40
2018-07-31T00:21:16.183Z,6.10
2018-07-31T00:22:16.166Z,6.60
2018-07-31T00:23:16.150Z,7.20
2018-07-31T00:24:16.136Z,6.00
2018-07-31T00:25:16.134Z,5.90
2018-07-31T00:26:16.107Z,6.10
2018-07-31T00:27:16.091Z,6.00
2018-07-31T00:28:16.078Z,5.80
2018-07-31T00:29:16.064Z,6.20
2018-07-31T00:30:16.067Z,8.40
2018-07-31T00:31:16.033Z,5.90
2018-07-31T00:32:16.024Z,6.40
2018-07-31T00:33:16.008Z,7.20
2018-07-31T00:34:15.988Z,6.10
2018-07-31T00:35:15.975Z,6.10
2018-07-31T00:36:15.976Z,5.70
2018-07-31T00:37:15.946Z,6.40
2018-07-31T00:38:15.930Z,5.60
2018-07-31T00:39:15.917Z,6.20
2018-07-31T00:40:15.901Z,5.50
2018-07-31T00:41:15.898Z,6.00
2018-07-31T00:42:15.870Z,6.20
2018-07-31T00:43:15.857Z,5.80
2018-07-31T00:44:15.842Z,6.40
2018-07-31T00:45:15.828Z,9.50
2018-07-31T00:46:15.823Z,7.20
2018-07-31T00:47:15.799Z,7.30
2018-07-31T00:48:15.782Z,5.90
2018-07-31T00:49:15.767Z,7.10
2018-07-31T00:50:15.753Z,6.00
2018-07-31T00:51:15.751Z,5.80
2018-07-31T00:52:15.723Z,6.10
2018-07-31T00:53:15.709Z,6.10
2018-07-31T00:54:15.693Z,6.30
2018-07-31T00:55:15.679Z,6.00
2018-07-31T00:56:15.676Z,6.90
2018-07-31T00:57:15.650Z,6.10
2018-07-31T00:58:15.633Z,6.60
2018-07-31T00:59:15.620Z,6.10
2018-07-31T01:00:15.604Z,6.60
2018-07-31T01:01:15.601Z,6.70
2018-07-31T01:02:15.573Z,6.80
2018-07-31T01:03:15.563Z,7.60
2018-07-31T01:04:15.544Z,6.30
2018-07-31T01:05:15.531Z,5.40
2018-07-31T01:06:15.537Z,5.80
2018-07-31T01:07:15.499Z,6.20
2018-07-31T01:08:15.485Z,6.70
2018-07-31T01:09:15.470Z,5.80
2018-07-31T01:10:15.453Z,5.80
2018-07-31T01:11:15.441Z,6.10
2018-07-31T01:12:15.437Z,6.20
2018-07-31T01:13:15.411Z,5.90
2018-07-31T01:14:15.395Z,8.50
2018-07-31T01:15:15.381Z,6.00
2018-07-31T01:16:15.364Z,6.50
2018-07-31T01:17:15.361Z,6.90
2018-07-31T01:18:15.334Z,6.10
2018-07-31T01:19:15.319Z,6.60
2018-07-31T01:20:15.306Z,6.00
2018-07-31T01:21:15.292Z,5.80
2018-07-31T01:22:15.285Z,5.90
2018-07-31T01:23:15.260Z,6.70
2018-07-31T01:24:15.245Z,6.40
2018-07-31T01:25:15.227Z,5.60
2018-07-31T01:26:15.213Z,6.70
2018-07-31T01:27:15.213Z,6.90
2018-07-31T01:28:15.183Z,5.60
2018-07-31T01:29:15.168Z,5.90
2018-07-31T01:30:15.153Z,6.00
2018-07-31T01:31:15.138Z,6.20
2018-07-31T01:32:15.123Z,5.80
2018-07-31T01:33:15.124Z,5.60
2018-07-31T01:34:15.092Z,5.50
2018-07-31T01:35:15.077Z,5.70
2018-07-31T01:36:15.062Z,5.80
2018-07-31T01:37:15.051Z,6.20
2018-07-31T01:38:15.044Z,5.90
2018-07-31T01:39:15.018Z,7.30
2018-07-31T01:40:15.001Z,6.20
2018-07-31T01:41:14.987Z,6.00
2018-07-31T01:42:14.971Z,6.60
2018-07-31T01:43:14.967Z,7.00
2018-07-31T01:44:14.940Z,5.90
2018-07-31T01:45:14.926Z,6.40
2018-07-31T01:46:14.908Z,7.60
2018-07-31T01:47:14.896Z,6.70
2018-07-31T01:48:14.895Z,7.10
2018-07-31T01:49:14.865Z,6.40
2018-07-31T01:50:14.850Z,6.30
2018-07-31T01:51:14.833Z,6.60
2018-07-31T01:52:14.819Z,6.80
2018-07-31T01:53:14.803Z,6.70
2018-07-31T01:54:14.798Z,6.70
2018-07-31T01:55:14.774Z,6.70
2018-07-31T01:56:14.758Z,6.30
2018-07-31T01:57:14.742Z,6.30
2018-07-31T01:58:14.726Z,6.50
2018-07-31T01:59:14.724Z,6.80
2018-07-31T02:00:14.697Z,8.00
2018-07-31T02:01:14.682Z,6.20
2018-07-31T02:02:14.667Z,7.10
2018-07-31T02:03:14.648Z,6.50
2018-07-31T02:04:14.652Z,7.00
2018-07-31T02:05:14.620Z,6.60
2018-07-31T02:06:14.635Z,6.50
2018-07-31T02:07:14.592Z,6.40
2018-07-31T02:08:14.574Z,8.20
2018-07-31T02:09:14.559Z,6.70
2018-07-31T02:10:14.556Z,6.80
2018-07-31T02:11:14.527Z,8.50
2018-07-31T02:12:14.512Z,6.80
2018-07-31T02:13:14.500Z,6.70
2018-07-31T02:14:14.479Z,6.50
2018-07-31T02:15:14.476Z,6.60
2018-07-31T02:16:14.454Z,9.00
2018-07-31T02:17:14.464Z,6.90
2018-07-31T02:18:14.420Z,8.50
2018-07-31T02:19:14.404Z,8.30
2018-07-31T02:20:14.400Z,7.90
2018-07-31T02:21:14.372Z,9.80
2018-07-31T02:22:14.358Z,7.40
2018-07-31T02:23:14.343Z,6.70
2018-07-31T02:24:14.324Z,7.10
2018-07-31T02:25:14.334Z,7.00
2018-07-31T02:26:14.295Z,6.80
2018-07-31T02:27:14.278Z,6.50
2018-07-31T02:28:14.327Z,6.60
2018-07-31T02:29:14.249Z,7.10
2018-07-31T02:30:14.234Z,6.60
2018-07-31T02:31:14.232Z,7.40
2018-07-31T02:32:14.203Z,7.20
2018-07-31T02:33:14.185Z,7.20
2018-07-31T02:34:14.172Z,7.00
2018-07-31T02:35:14.157Z,6.70
2018-07-31T02:36:14.152Z,6.50
2018-07-31T02:37:14.127Z,7.20
2018-07-31T02:38:14.109Z,7.40
2018-07-31T02:39:14.093Z,7.10
2018-07-31T02:40:14.079Z,7.10
2018-07-31T02:41:14.073Z,7.00
2018-07-31T02:42:14.046Z,7.10
2018-07-31T02:43:14.036Z,6.50
2018-07-31T02:44:14.017Z,6.60
2018-07-31T02:45:13.999Z,7.10
2018-07-31T02:46:14.002Z,6.80
2018-07-31T02:47:13.969Z,7.40
2018-07-31T02:48:13.952Z,7.80
2018-07-31T02:49:13.940Z,6.40
2018-07-31T02:50:13.921Z,7.60
2018-07-31T02:51:13.906Z,6.50
2018-07-31T02:52:13.904Z,7.10
2018-07-31T02:53:13.874Z,6.80
2018-07-31T02:54:13.859Z,7.20
2018-07-31T02:55:13.844Z,7.00
2018-07-31T02:56:13.829Z,6.60
2018-07-31T02:57:13.854Z,6.40
2018-07-31T02:58:13.832Z,6.80
2018-07-31T02:59:13.781Z,6.80
2018-07-31T03:00:13.767Z,8.10
2018-07-31T03:01:13.750Z,8.50
2018-07-31T03:02:13.734Z,6.70
2018-07-31T03:03:13.728Z,8.90
2018-07-31T03:04:13.702Z,8.10
2018-07-31T03:05:13.686Z,6.70
2018-07-31T03:06:13.675Z,6.70
2018-07-31T03:07:13.656Z,6.40
2018-07-31T03:08:13.696Z,6.40
2018-07-31T03:09:13.625Z,6.20
2018-07-31T03:10:13.611Z,6.20
2018-07-31T03:11:13.595Z,6.00
2018-07-31T03:12:13.576Z,6.90
2018-07-31T03:13:13.597Z,8.70
2018-07-31T03:14:13.545Z,5.70
2018-07-31T03:15:13.529Z,9.30
2018-07-31T03:16:13.513Z,6.10
2018-07-31T03:17:13.498Z,6.80
2018-07-31T03:18:13.482Z,8.80
2018-07-31T03:19:13.477Z,6.70
2018-07-31T03:20:13.452Z,7.00
2018-07-31T03:21:13.435Z,7.90
2018-07-31T03:22:13.420Z,6.60
2018-07-31T03:23:13.403Z,7.20
2018-07-31T03:24:13.397Z,7.70
2018-07-31T03:25:13.373Z,7.80
2018-07-31T03:26:13.356Z,8.00
2018-07-31T03:27:13.339Z,7.70
2018-07-31T03:28:13.355Z,8.30
2018-07-31T03:29:13.346Z,7.80
2018-07-31T03:30:13.294Z,9.40
2018-07-31T03:31:13.277Z,7.70
2018-07-31T03:32:13.267Z,7.60
2018-07-31T03:33:13.244Z,8.00
2018-07-31T03:34:13.227Z,7.80
2018-07-31T03:35:13.222Z,8.00
2018-07-31T03:36:13.196Z,8.20
2018-07-31T03:37:13.181Z,7.80
2018-07-31T03:38:13.164Z,8.40
2018-07-31T03:39:13.148Z,8.30
2018-07-31T03:40:13.169Z,8.30
2018-07-31T03:41:13.117Z,8.40
2018-07-31T03:42:13.102Z,8.00
2018-07-31T03:43:13.083Z,7.90
2018-07-31T03:44:13.069Z,7.60
2018-07-31T03:45:13.055Z,8.50
2018-07-31T03:46:13.050Z,7.80
2018-07-31T03:47:13.051Z,7.30
2018-07-31T03:48:13.006Z,7.60
2018-07-31T03:49:12.987Z,7.60
2018-07-31T03:50:12.973Z,7.50
2018-07-31T03:51:12.968Z,7.20
2018-07-31T03:52:12.941Z,7.10
2018-07-31T03:53:12.926Z,8.60
2018-07-31T03:54:12.916Z,7.60
2018-07-31T03:55:12.893Z,7.10
2018-07-31T03:56:12.927Z,8.10
2018-07-31T03:57:12.862Z,8.00
2018-07-31T03:58:12.847Z,7.10
2018-07-31T03:59:12.828Z,7.00
2018-07-31T04:00:12.815Z,7.30
2018-07-31T04:01:12.820Z,8.50
2018-07-31T04:02:12.781Z,7.40
2018-07-31T04:03:12.766Z,7.20
2018-07-31T04:04:12.749Z,6.50
2018-07-31T04:05:12.731Z,6.70
2018-07-31T04:06:12.715Z,7.70
2018-07-31T04:07:12.712Z,6.90
2018-07-31T04:08:12.685Z,7.10
2018-07-31T04:09:12.668Z,6.70
2018-07-31T04:10:12.655Z,7.70
2018-07-31T04:11:12.637Z,7.40
2018-07-31T04:12:12.638Z,6.70
2018-07-31T04:13:12.617Z,10.00
2018-07-31T04:14:12.590Z,7.50
2018-07-31T04:15:12.573Z,7.60
2018-07-31T04:16:12.567Z,7.80
2018-07-31T04:17:12.629Z,7.30
2018-07-31T04:18:12.525Z,7.40
2018-07-31T04:19:12.510Z,7.60
2018-07-31T04:20:12.494Z,7.50
2018-07-31T04:21:12.477Z,7.30
2018-07-31T04:22:12.472Z,7.80
2018-07-31T04:23:12.445Z,9.10
2018-07-31T04:24:12.428Z,7.50
2018-07-31T04:25:12.415Z,7.90
2018-07-31T04:26:12.396Z,8.00
2018-07-31T04:27:12.394Z,8.70
2018-07-31T04:28:12.366Z,7.90
2018-07-31T04:29:12.349Z,8.00
2018-07-31T04:30:12.417Z,7.20
2018-07-31T04:31:12.318Z,8.60
2018-07-31T04:32:12.316Z,7.30
2018-07-31T04:33:12.285Z,8.20
2018-07-31T04:34:12.272Z,8.20
2018-07-31T04:35:12.254Z,8.30
2018-07-31T04:36:12.266Z,7.50
2018-07-31T04:37:12.233Z,7.20
2018-07-31T04:38:12.208Z,7.50
2018-07-31T04:39:12.190Z,9.30
2018-07-31T04:40:12.175Z,7.50
2018-07-31T04:41:12.194Z,7.90
2018-07-31T04:42:12.194Z,8.10
2018-07-31T04:43:12.127Z,7.50
2018-07-31T04:44:12.111Z,7.60
2018-07-31T04:45:12.100Z,7.80
2018-07-31T04:46:12.079Z,7.90
2018-07-31T04:47:12.077Z,7.30
2018-07-31T04:48:12.048Z,7.90
2018-07-31T04:49:12.039Z,8.70
2018-07-31T04:50:12.017Z,7.40
2018-07-31T04:51:11.999Z,7.70
2018-07-31T04:52:11.996Z,7.20
2018-07-31T04:53:11.971Z,8.20
2018-07-31T04:54:11.953Z,7.30
2018-07-31T04:55:11.937Z,6.90
2018-07-31T04:56:11.921Z,7.30
2018-07-31T04:57:11.922Z,7.50
2018-07-31T04:58:11.891Z,7.90
2018-07-31T04:59:11.873Z,7.70
2018-07-31T05:00:11.859Z,7.40
2018-07-31T05:01:11.844Z,8.20
2018-07-31T05:02:11.849Z,8.30
2018-07-31T05:03:11.812Z,7.70
2018-07-31T05:04:11.796Z,7.70
2018-07-31T05:05:11.787Z,7.50
2018-07-31T05:06:11.769Z,8.30
2018-07-31T05:07:11.750Z,8.00
2018-07-31T05:08:11.746Z,7.80
2018-07-31T05:09:11.722Z,7.70
2018-07-31T05:10:11.704Z,8.20
2018-07-31T05:11:11.748Z,7.80
2018-07-31T05:12:11.674Z,8.10
2018-07-31T05:13:11.669Z,8.00
2018-07-31T05:14:11.641Z,8.30
2018-07-31T05:15:11.626Z,8.00
2018-07-31T05:16:11.616Z,10.90
2018-07-31T05:17:11.595Z,8.70
2018-07-31T05:18:11.602Z,8.30
2018-07-31T05:19:11.564Z,8.30
2018-07-31T05:20:11.552Z,7.80
2018-07-31T05:21:11.531Z,9.30
2018-07-31T05:22:11.517Z,8.00
2018-07-31T05:23:11.502Z,8.70
2018-07-31T05:24:11.496Z,8.00
2018-07-31T05:25:11.523Z,8.50
2018-07-31T05:26:11.456Z,9.00
2018-07-31T05:27:11.438Z,8.50
2018-07-31T05:28:11.424Z,8.50
2018-07-31T05:29:11.425Z,8.10
2018-07-31T05:30:11.393Z,8.50
2018-07-31T05:31:11.392Z,8.30
2018-07-31T05:32:11.367Z,7.90
2018-07-31T05:33:11.347Z,8.70
2018-07-31T05:34:11.332Z,8.50
2018-07-31T05:35:11.325Z,8.50
2018-07-31T05:36:11.301Z,8.70
2018-07-31T05:37:11.285Z,8.30
2018-07-31T05:38:11.271Z,9.10
2018-07-31T05:39:11.254Z,8.60
2018-07-31T05:40:11.249Z,7.60
2018-07-31T05:41:11.223Z,8.90
2018-07-31T05:42:11.206Z,8.80
2018-07-31T05:43:11.192Z,8.20
2018-07-31T05:44:11.177Z,8.80
2018-07-31T05:45:11.172Z,8.50
2018-07-31T05:46:11.168Z,8.20
2018-07-31T05:47:11.131Z,8.20
2018-07-31T05:48:11.114Z,7.90
2018-07-31T05:49:11.100Z,9.10
2018-07-31T05:50:11.096Z,8.20
2018-07-31T05:51:11.071Z,9.30
2018-07-31T05:52:11.054Z,9.10
2018-07-31T05:53:11.039Z,8.40
2018-07-31T05:54:11.023Z,11.40
2018-07-31T05:55:11.023Z,8.50
2018-07-31T05:56:10.995Z,8.30
2018-07-31T05:57:10.981Z,8.20
2018-07-31T05:58:10.963Z,7.90
2018-07-31T05:59:10.949Z,7.80
2018-07-31T06:00:10.954Z,8.30
2018-07-31T06:01:10.919Z,7.70
2018-07-31T06:02:10.904Z,8.60
2018-07-31T06:03:10.888Z,8.20
2018-07-31T06:04:10.875Z,8.50
2018-07-31T06:05:10.866Z,8.40
2018-07-31T06:06:10.858Z,8.70
2018-07-31T06:07:10.831Z,8.00
2018-07-31T06:08:10.818Z,9.00
2018-07-31T06:09:10.805Z,9.30
2018-07-31T06:10:10.789Z,7.50
2018-07-31T06:11:10.830Z,7.80
2018-07-31T06:12:10.763Z,9.10
2018-07-31T06:13:10.748Z,9.90
2018-07-31T06:14:10.734Z,7.90
2018-07-31T06:15:10.740Z,9.90
2018-07-31T06:16:10.707Z,7.20
2018-07-31T06:17:10.705Z,7.80
2018-07-31T06:18:10.680Z,10.70
2018-07-31T06:19:10.665Z,8.00
2018-07-31T06:20:10.652Z,9.30
2018-07-31T06:21:10.640Z,8.80
2018-07-31T06:22:10.640Z,7.80
2018-07-31T06:23:10.612Z,10.10
2018-07-31T06:24:10.599Z,9.70
2018-07-31T06:25:10.589Z,6.80
2018-07-31T06:26:10.575Z,9.40
2018-07-31T06:27:10.577Z,7.60
2018-07-31T06:28:10.548Z,7.20
2018-07-31T06:29:10.535Z,8.60
2018-07-31T06:30:10.525Z,9.40
2018-07-31T06:31:10.511Z,7.60
2018-07-31T06:32:10.518Z,9.50
2018-07-31T06:33:10.486Z,9.50
2018-07-31T06:34:10.475Z,7.60
2018-07-31T06:35:10.460Z,8.70
2018-07-31T06:36:10.452Z,7.80
2018-07-31T06:37:10.437Z,7.00
2018-07-31T06:38:10.438Z,6.50
2018-07-31T06:39:10.415Z,7.80
2018-07-31T06:40:10.405Z,10.30
2018-07-31T06:41:10.396Z,9.20
2018-07-31T06:42:10.380Z,9.10
2018-07-31T06:43:10.376Z,8.10
2018-07-31T06:44:10.358Z,10.20
2018-07-31T06:45:10.344Z,9.50
2018-07-31T06:46:10.330Z,7.00
2018-07-31T06:47:10.323Z,6.20
2018-07-31T06:48:10.332Z,7.00
2018-07-31T06:49:10.324Z,7.60
2018-07-31T06:50:10.284Z,8.30
2018-07-31T06:51:10.273Z,9.40
2018-07-31T06:52:10.261Z,8.50
2018-07-31T06:53:10.264Z,9.70
2018-07-31T06:54:10.237Z,12.50
2018-07-31T06:55:10.225Z,8.30
2018-07-31T06:56:10.219Z,6.30
2018-07-31T06:57:10.208Z,7.90
2018-07-31T06:58:10.208Z,7.20
2018-07-31T06:59:10.178Z,8.60
2018-07-31T07:00:10.169Z,8.60
2018-07-31T07:01:10.155Z,9.10
2018-07-31T07:02:10.148Z,10.10
2018-07-31T07:03:10.134Z,6.50
2018-07-31T07:04:10.132Z,9.70
2018-07-31T07:05:10.109Z,8.00
2018-07-31T07:06:10.097Z,9.50
2018-07-31T07:07:10.079Z,11.80
2018-07-31T07:08:10.073Z,12.30
2018-07-31T07:09:10.091Z,12.90
2018-07-31T07:10:10.047Z,7.90
2018-07-31T07:11:10.039Z,10.60
2018-07-31T07:12:10.025Z,8.50
2018-07-31T07:13:10.012Z,10.60
2018-07-31T07:14:09.999Z,9.80
2018-07-31T07:15:10.000Z,11.90
2018-07-31T07:16:09.977Z,10.60
2018-07-31T07:17:09.964Z,10.90
2018-07-31T07:18:09.951Z,9.30
2018-07-31T07:19:09.938Z,14.20
2018-07-31T07:20:09.940Z,8.80
2018-07-31T07:21:09.920Z,12.60
2018-07-31T07:22:09.903Z,12.30
2018-07-31T07:23:09.890Z,13.00
2018-07-31T07:24:09.880Z,12.40
2018-07-31T07:25:09.878Z,10.80
2018-07-31T07:26:09.855Z,11.20
2018-07-31T07:27:09.847Z,8.50
2018-07-31T07:28:09.832Z,9.00
2018-07-31T07:29:09.820Z,10.60
2018-07-31T07:30:09.818Z,8.40
2018-07-31T07:31:09.796Z,11.90
2018-07-31T07:32:09.784Z,10.90
2018-07-31T07:33:09.773Z,10.50
2018-07-31T07:34:09.761Z,12.20
2018-07-31T07:35:09.764Z,10.20
2018-07-31T07:36:09.742Z,13.30
2018-07-31T07:37:09.727Z,10.50
2018-07-31T07:38:09.714Z,10.10
2018-07-31T07:39:09.703Z,8.20
2018-07-31T07:40:09.757Z,10.20
2018-07-31T07:41:09.679Z,8.40
2018-07-31T07:42:09.668Z,8.30
2018-07-31T07:43:09.657Z,8.70
2018-07-31T07:44:09.646Z,9.10
2018-07-31T07:45:09.646Z,7.90
2018-07-31T07:46:09.624Z,7.30
2018-07-31T07:47:09.614Z,9.50
2018-07-31T07:48:09.602Z,14.00
2018-07-31T07:49:09.595Z,6.40
2018-07-31T07:50:09.598Z,10.80
2018-07-31T07:51:09.572Z,10.50
2018-07-31T07:52:09.559Z,10.10
2018-07-31T07:53:09.546Z,8.30
2018-07-31T07:54:09.650Z,8.20
2018-07-31T07:55:09.526Z,10.40
2018-07-31T07:56:09.523Z,7.10
2018-07-31T07:57:09.500Z,13.60
2018-07-31T07:58:09.488Z,9.20
2018-07-31T07:59:09.478Z,7.90
2018-07-31T08:00:09.464Z,8.80
2018-07-31T08:01:09.468Z,7.80
2018-07-31T08:02:09.444Z,6.80
2018-07-31T08:03:09.435Z,7.10
2018-07-31T08:04:09.450Z,10.70
2018-07-31T08:05:09.411Z,7.00
2018-07-31T08:06:09.413Z,8.10
2018-07-31T08:07:09.391Z,7.60
2018-07-31T08:08:09.378Z,5.90
2018-07-31T08:09:09.367Z,5.90
2018-07-31T08:10:09.356Z,8.70
2018-07-31T08:11:09.354Z,7.50
2018-07-31T08:12:09.331Z,7.60
2018-07-31T08:13:09.322Z,7.70
2018-07-31T08:14:09.309Z,16.40
2018-07-31T08:15:09.302Z,9.80
2018-07-31T08:16:09.302Z,9.90
2018-07-31T08:17:09.276Z,6.60
2018-07-31T08:18:09.265Z,8.00
2018-07-31T08:19:09.253Z,7.60
2018-07-31T08:20:09.244Z,7.70
2018-07-31T08:21:09.252Z,7.80
2018-07-31T08:22:09.220Z,8.40
2018-07-31T08:23:09.224Z,7.90
2018-07-31T08:24:09.200Z,6.30
2018-07-31T08:25:09.188Z,7.50
2018-07-31T08:26:09.175Z,7.70
2018-07-31T08:27:09.234Z,7.50
2018-07-31T08:28:09.152Z,9.30
2018-07-31T08:29:09.143Z,5.70
2018-07-31T08:30:09.130Z,7.90
2018-07-31T08:31:09.128Z,6.60
2018-07-31T08:32:09.122Z,5.50
2018-07-31T08:33:09.098Z,6.90
2018-07-31T08:34:09.086Z,8.60
2018-07-31T08:35:09.076Z,7.00
2018-07-31T08:36:09.070Z,8.10
2018-07-31T08:37:09.067Z,7.20
2018-07-31T08:38:09.043Z,7.00
2018-07-31T08:39:09.032Z,7.50
2018-07-31T08:40:09.022Z,6.40
2018-07-31T08:41:09.012Z,8.60
2018-07-31T08:42:09.010Z,5.50
2018-07-31T08:43:08.988Z,6.70
2018-07-31T08:44:08.999Z,9.20
2018-07-31T08:45:08.967Z,7.20
2018-07-31T08:46:08.953Z,6.80
2018-07-31T08:47:08.956Z,6.10
2018-07-31T08:48:08.937Z,7.60
2018-07-31T08:49:08.924Z,5.50
2018-07-31T08:50:08.911Z,8.30
2018-07-31T08:51:08.947Z,7.50
2018-07-31T08:52:08.902Z,7.30
2018-07-31T08:53:08.880Z,4.50
2018-07-31T08:54:08.871Z,5.60
2018-07-31T08:55:08.869Z,6.20
2018-07-31T08:56:08.846Z,7.70
2018-07-31T08:57:08.881Z,6.70
2018-07-31T08:58:08.825Z,7.20
2018-07-31T08:59:08.814Z,7.20
2018-07-31T09:00:08.807Z,6.50
2018-07-31T09:01:08.794Z,4.20
2018-07-31T09:02:08.795Z,5.00
2018-07-31T09:03:08.781Z,5.40
2018-07-31T09:04:08.763Z,6.20
2018-07-31T09:05:08.753Z,5.80
2018-07-31T09:06:08.747Z,6.90
2018-07-31T09:07:08.744Z,4.80
2018-07-31T09:08:08.739Z,4.40
2018-07-31T09:09:08.713Z,7.00
2018-07-31T09:10:08.700Z,4.20
2018-07-31T09:11:08.689Z,6.60
2018-07-31T09:12:08.691Z,4.10
2018-07-31T09:13:08.670Z,4.00
2018-07-31T09:14:08.664Z,5.50
2018-07-31T09:15:08.647Z,5.50
2018-07-31T09:16:08.640Z,5.60
2018-07-31T09:17:08.646Z,7.50
2018-07-31T09:18:08.618Z,5.80
2018-07-31T09:19:08.610Z,6.90
2018-07-31T09:20:08.598Z,5.70
2018-07-31T09:21:08.590Z,4.90
2018-07-31T09:22:08.578Z,6.30
2018-07-31T09:23:08.579Z,5.50
2018-07-31T09:24:08.558Z,8.20
2018-07-31T09:25:08.550Z,6.20
2018-07-31T09:26:08.537Z,6.20
2018-07-31T09:27:08.529Z,5.40
2018-07-31T09:28:08.531Z,9.70
2018-07-31T09:29:08.515Z,5.90
2018-07-31T09:30:08.499Z,8.40
2018-07-31T09:31:08.566Z,6.10
2018-07-31T09:32:08.481Z,3.50
2018-07-31T09:33:08.483Z,5.80
2018-07-31T09:34:08.462Z,4.00
2018-07-31T09:35:08.453Z,8.70
2018-07-31T09:36:08.442Z,4.70
2018-07-31T09:37:08.437Z,3.10
2018-07-31T09:38:08.455Z,4.80
2018-07-31T09:39:08.416Z,4.30
2018-07-31T09:40:08.406Z,4.10
2018-07-31T09:41:08.397Z,5.10
2018-07-31T09:42:08.385Z,6.50
2018-07-31T09:43:08.397Z,4.60
2018-07-31T09:44:08.367Z,4.10
2018-07-31T09:45:08.357Z,5.20
2018-07-31T09:46:08.348Z,3.60
2018-07-31T09:47:08.340Z,4.00
2018-07-31T09:48:08.330Z,5.00
2018-07-31T09:49:08.333Z,6.20
2018-07-31T09:50:08.317Z,4.60
2018-07-31T09:51:08.301Z,3.80
2018-07-31T09:52:08.292Z,3.90
2018-07-31T09:53:08.284Z,4.20
2018-07-31T09:54:08.286Z,6.10
2018-07-31T09:55:08.263Z,4.80
2018-07-31T09:56:08.254Z,5.50
2018-07-31T09:57:08.263Z,3.70
2018-07-31T09:58:08.235Z,3.30
2018-07-31T09:59:08.259Z,4.80
2018-07-31T10:00:08.243Z,4.10
2018-07-31T10:01:08.207Z,2.90
2018-07-31T10:02:08.196Z,4.90
2018-07-31T10:03:08.189Z,4.10
2018-07-31T10:04:08.180Z,4.60
2018-07-31T10:05:08.189Z,4.40
2018-07-31T10:06:08.171Z,4.70
2018-07-31T10:07:08.152Z,4.10
2018-07-31T10:08:08.142Z,4.10
2018-07-31T10:09:08.134Z,5.20
2018-07-31T10:10:08.126Z,2.80
2018-07-31T10:11:08.125Z,5.30
2018-07-31T10:12:08.112Z,6.60
2018-07-31T10:13:08.096Z,3.70
2018-07-31T10:14:08.091Z,2.60
2018-07-31T10:15:08.080Z,3.60
2018-07-31T10:16:08.092Z,6.80
2018-07-31T10:17:08.067Z,6.60
2018-07-31T10:18:08.075Z,4.60
2018-07-31T10:19:08.049Z,4.90
2018-07-31T10:20:08.033Z,5.60
2018-07-31T10:21:08.035Z,2.90
2018-07-31T10:22:08.016Z,5.40
2018-07-31T10:23:08.008Z,5.70
2018-07-31T10:24:08.044Z,6.00
2018-07-31T10:25:07.990Z,2.80
2018-07-31T10:26:07.998Z,6.60
2018-07-31T10:27:07.972Z,3.90
2018-07-31T10:28:07.965Z,3.70
2018-07-31T10:29:07.956Z,4.00
2018-07-31T10:30:07.945Z,5.50
2018-07-31T10:31:08.054Z,4.40
2018-07-31T10:32:07.932Z,4.30
2018-07-31T10:33:07.921Z,5.10
2018-07-31T10:34:07.912Z,5.90
2018-07-31T10:35:07.904Z,5.70
2018-07-31T10:36:07.895Z,3.90
2018-07-31T10:37:07.899Z,3.90
2018-07-31T10:38:07.879Z,3.90
2018-07-31T10:39:07.869Z,3.60
2018-07-31T10:40:07.863Z,4.00
2018-07-31T10:41:07.855Z,3.30
2018-07-31T10:42:07.961Z,4.30
2018-07-31T10:43:07.835Z,3.30
2018-07-31T10:44:07.830Z,4.40
2018-07-31T10:45:07.821Z,3.70
2018-07-31T10:46:07.812Z,5.40
2018-07-31T10:47:07.805Z,6.50
2018-07-31T10:48:07.804Z,6.60
2018-07-31T10:49:07.788Z,2.90
2018-07-31T10:50:07.777Z,2.70
2018-07-31T10:51:07.832Z,4.50
2018-07-31T10:52:07.762Z,4.40
2018-07-31T10:53:07.763Z,4.80
2018-07-31T10:54:07.742Z,4.70
2018-07-31T10:55:07.806Z,5.80
2018-07-31T10:56:07.726Z,4.90
2018-07-31T10:57:07.719Z,4.00
2018-07-31T10:58:07.863Z,6.00
2018-07-31T10:59:07.702Z,5.00
2018-07-31T11:00:07.766Z,4.20
2018-07-31T11:01:07.684Z,4.80
2018-07-31T11:02:07.675Z,6.90
2018-07-31T11:03:07.720Z,2.80
2018-07-31T11:04:07.676Z,4.40
2018-07-31T11:05:07.652Z,3.60
2018-07-31T11:06:07.657Z,3.50
2018-07-31T11:07:07.636Z,3.50
2018-07-31T11:08:07.628Z,4.60
2018-07-31T11:09:07.632Z,2.80
2018-07-31T11:10:07.610Z,2.80
2018-07-31T11:11:07.603Z,4.10
2018-07-31T11:12:07.598Z,4.30
2018-07-31T11:13:07.644Z,3.80
2018-07-31T11:14:07.590Z,4.90
2018-07-31T11:15:07.570Z,3.80
2018-07-31T11:16:07.566Z,5.80
2018-07-31T11:17:07.555Z,5.40
2018-07-31T11:18:07.546Z,3.20
2018-07-31T11:19:07.547Z,3.70
2018-07-31T11:20:07.528Z,4.20
2018-07-31T11:21:07.579Z,4.80
2018-07-31T11:22:07.510Z,4.00
2018-07-31T11:23:07.501Z,6.90
2018-07-31T11:24:07.507Z,4.20
2018-07-31T11:25:07.484Z,2.90
2018-07-31T11:26:07.474Z,3.30
2018-07-31T11:27:07.465Z,4.90
2018-07-31T11:28:07.463Z,4.00
2018-07-31T11:29:07.487Z,4.70
2018-07-31T11:30:07.437Z,3.60
2018-07-31T11:31:07.434Z,4.60
2018-07-31T11:32:07.423Z,5.40
2018-07-31T11:33:07.478Z,3.40
2018-07-31T11:34:07.408Z,2.90
2018-07-31T11:35:07.409Z,3.60
2018-07-31T11:36:07.388Z,3.90
2018-07-31T11:37:07.381Z,2.80
2018-07-31T11:38:07.368Z,4.90
2018-07-31T11:39:07.360Z,3.20
2018-07-31T11:40:07.365Z,2.50
2018-07-31T11:41:07.346Z,2.40
2018-07-31T11:42:07.335Z,3.20
2018-07-31T11:43:07.328Z,4.90
2018-07-31T11:44:07.320Z,3.00
2018-07-31T11:45:07.322Z,2.80
2018-07-31T11:46:07.303Z,3.60
2018-07-31T11:47:07.295Z,5.90
2018-07-31T11:48:07.285Z,3.00
2018-07-31T11:49:07.276Z,2.20
2018-07-31T11:50:07.375Z,3.40
2018-07-31T11:51:07.260Z,2.80
2018-07-31T11:52:07.251Z,3.20
2018-07-31T11:53:07.243Z,2.60
2018-07-31T11:54:07.234Z,1.90
2018-07-31T11:55:07.237Z,4.20
2018-07-31T11:56:07.219Z,6.50
2018-07-31T11:57:07.211Z,5.30
2018-07-31T11:58:07.205Z,4.60
2018-07-31T11:59:07.194Z,2.70
2018-07-31T12:00:07.198Z,1.90
2018-07-31T12:01:07.179Z,2.30
2018-07-31T12:02:07.171Z,1.70
2018-07-31T12:03:07.164Z,1.50
2018-07-31T12:04:07.168Z,3.10
2018-07-31T12:05:07.159Z,2.80
2018-07-31T12:06:07.141Z,4.90
2018-07-31T12:07:07.138Z,2.90
2018-07-31T12:08:07.124Z,3.40
2018-07-31T12:09:07.117Z,3.30
2018-07-31T12:10:07.121Z,3.40
2018-07-31T12:11:07.100Z,4.30
2018-07-31T12:12:07.094Z,2.70
2018-07-31T12:13:07.084Z,3.30
2018-07-31T12:14:07.076Z,2.20
2018-07-31T12:15:07.093Z,2.70
2018-07-31T12:16:07.115Z,3.30
2018-07-31T12:17:07.054Z,2.50
2018-07-31T12:18:07.048Z,4.10
2018-07-31T12:19:07.087Z,4.60
2018-07-31T12:20:07.053Z,3.40
2018-07-31T12:21:07.029Z,3.00
2018-07-31T12:22:07.019Z,4.70
2018-07-31T12:23:07.008Z,3.20
2018-07-31T12:24:06.998Z,6.80
2018-07-31T12:25:06.992Z,4.10
2018-07-31T12:26:06.997Z,4.30
2018-07-31T12:27:06.993Z,4.00
2018-07-31T12:28:06.966Z,2.60
2018-07-31T12:29:06.957Z,3.40
2018-07-31T12:30:06.950Z,4.30
2018-07-31T12:31:06.953Z,5.10
2018-07-31T12:32:06.935Z,4.00
2018-07-31T12:33:06.928Z,3.90
2018-07-31T12:34:06.915Z,3.60
2018-07-31T12:35:06.908Z,5.30
2018-07-31T12:36:06.911Z,4.00
2018-07-31T12:37:06.891Z,4.10
2018-07-31T12:38:06.914Z,6.90
2018-07-31T12:39:06.872Z,4.50
2018-07-31T12:40:06.866Z,5.10
2018-07-31T12:41:06.869Z,4.60
2018-07-31T12:42:06.849Z,5.90
2018-07-31T12:43:06.840Z,3.30
2018-07-31T12:44:06.843Z,6.00
2018-07-31T12:45:06.824Z,5.40
2018-07-31T12:46:06.832Z,5.10
2018-07-31T12:47:06.806Z,6.90
2018-07-31T12:48:06.798Z,3.30
2018-07-31T12:49:06.789Z,5.10
2018-07-31T12:50:06.814Z,4.60
2018-07-31T12:51:06.772Z,4.50
2018-07-31T12:52:06.776Z,4.30
2018-07-31T12:53:06.760Z,3.40
2018-07-31T12:54:06.750Z,3.00
2018-07-31T12:55:06.738Z,5.60
2018-07-31T12:56:06.733Z,4.80
2018-07-31T12:57:06.734Z,5.20
2018-07-31T12:58:06.712Z,5.10
2018-07-31T12:59:06.750Z,3.30
2018-07-31T13:00:06.751Z,3.60
2018-07-31T13:01:06.686Z,6.80
2018-07-31T13:02:06.717Z,6.10
2018-07-31T13:03:06.671Z,3.60
2018-07-31T13:04:06.663Z,3.70
2018-07-31T13:05:06.661Z,5.40
2018-07-31T13:06:06.643Z,5.70
2018-07-31T13:07:06.637Z,3.50
2018-07-31T13:08:06.641Z,3.50
2018-07-31T13:09:06.618Z,3.20
2018-07-31T13:10:06.613Z,4.00
2018-07-31T13:11:06.604Z,3.40
2018-07-31T13:12:06.598Z,3.90
2018-07-31T13:13:06.605Z,3.90
2018-07-31T13:14:06.578Z,4.70
2018-07-31T13:15:06.575Z,2.50
2018-07-31T13:16:06.567Z,3.40
2018-07-31T13:17:06.560Z,4.60